OCN142 EDDM-FYWH
Flight info
| Callsign | OCN142 |
|---|---|
| Flight time | N/A |
| Altitude | 35000 |
| Route | TURBU6E TURBU Y107 TOBSO DCT BAKOR DCT VIC DCT KOPER DCT LUMAV DCT TINTO DCT BULAR DCT ABDAB/N0471F360 UL44 TUC UW411 EBA UG362 BARKA/N0478F350 UA605 NAGAH/N0476F370 UA605 DJA UB730 DIR UA607 FL/N0472F390 UA403 BZ DCT KSA UT943 IMVEX/N0466F400 UT943 UNLOK/N0467F390 UT943 VEDRY |
| Aircraft | A333/H-SDE3GHIJ2J3J5M1RVWXY/LB2D1 |
Departure
| Time | N/A |
|---|---|
| Airport | Munich Airport (EDDM) |
Arrival
| Time | 2026-05-01 08:39 |
|---|---|
| Airport | Hosea Kutako International Airport (FYWH) |
| Time | Latitude | Longitude | Altitude | Speed | Heading |
|---|---|---|---|---|---|
| 2026-05-01 08:00 | -19.99248 | 17.16037 | 37277 ft | 484 kts | 179° |
| 2026-05-01 08:01 | -20.12611 | 17.17683 | 37277 ft | 483 kts | 179° |
| 2026-05-01 08:02 | -20.22657 | 17.18921 | 37280 ft | 482 kts | 179° |
| 2026-05-01 08:03 | -20.32696 | 17.20159 | 37275 ft | 484 kts | 179° |
| 2026-05-01 08:03 | -20.42766 | 17.21404 | 37279 ft | 485 kts | 179° |
| 2026-05-01 08:04 | -20.56197 | 17.23066 | 37274 ft | 484 kts | 179° |
| 2026-05-01 08:05 | -20.66235 | 17.24310 | 37258 ft | 482 kts | 179° |
| 2026-05-01 08:06 | -20.76340 | 17.25566 | 37246 ft | 486 kts | 179° |
| 2026-05-01 08:07 | -20.89685 | 17.27222 | 36753 ft | 462 kts | 179° |
| 2026-05-01 08:07 | -20.95974 | 17.28004 | 36243 ft | 449 kts | 179° |
| 2026-05-01 08:08 | -20.99073 | 17.28389 | 35976 ft | 443 kts | 179° |
| 2026-05-01 08:08 | -21.05213 | 17.29149 | 35443 ft | 447 kts | 178° |
| 2026-05-01 08:09 | -21.11522 | 17.29935 | 34923 ft | 449 kts | 179° |
| 2026-05-01 08:09 | -21.14647 | 17.30324 | 34653 ft | 448 kts | 178° |
| 2026-05-01 08:09 | -21.17751 | 17.30711 | 34392 ft | 447 kts | 178° |
| 2026-05-01 08:10 | -21.24046 | 17.31493 | 33299 ft | 455 kts | 177° |
| 2026-05-01 08:10 | -21.30360 | 17.32280 | 31804 ft | 464 kts | 176° |
| 2026-05-01 08:11 | -21.36824 | 17.33090 | 30557 ft | 462 kts | 176° |
| 2026-05-01 08:11 | -21.43185 | 17.33885 | 29530 ft | 454 kts | 175° |
| 2026-05-01 08:12 | -21.49445 | 17.34668 | 28194 ft | 450 kts | 175° |
| 2026-05-01 08:12 | -21.52563 | 17.35058 | 27571 ft | 447 kts | 175° |
| 2026-05-01 08:12 | -21.58685 | 17.35825 | 26433 ft | 437 kts | 174° |
| 2026-05-01 08:13 | -21.61651 | 17.36197 | 25974 ft | 430 kts | 174° |
| 2026-05-01 08:13 | -21.64641 | 17.36573 | 25430 ft | 424 kts | 174° |
| 2026-05-01 08:13 | -21.70394 | 17.37294 | 24443 ft | 412 kts | 174° |
| 2026-05-01 08:14 | -21.73229 | 17.37649 | 23871 ft | 408 kts | 174° |
| 2026-05-01 08:14 | -21.76064 | 17.38005 | 23406 ft | 401 kts | 173° |
| 2026-05-01 08:14 | -21.78825 | 17.38351 | 22814 ft | 398 kts | 173° |
| 2026-05-01 08:14 | -21.81552 | 17.38695 | 22356 ft | 391 kts | 173° |
| 2026-05-01 08:15 | -21.84230 | 17.39033 | 21774 ft | 389 kts | 173° |
| 2026-05-01 08:15 | -21.89551 | 17.39703 | 20761 ft | 379 kts | 173° |
| 2026-05-01 08:15 | -21.92159 | 17.40031 | 20282 ft | 374 kts | 173° |
| 2026-05-01 08:16 | -21.94723 | 17.40354 | 19882 ft | 367 kts | 173° |
| 2026-05-01 08:16 | -21.97264 | 17.40674 | 19346 ft | 364 kts | 173° |
| 2026-05-01 08:16 | -21.99746 | 17.40987 | 18890 ft | 360 kts | 174° |
| 2026-05-01 08:16 | -22.02226 | 17.41300 | 18414 ft | 356 kts | 174° |
| 2026-05-01 08:17 | -22.05476 | 17.41710 | 17820 ft | 351 kts | 174° |
| 2026-05-01 08:17 | -22.07107 | 17.41916 | 17550 ft | 349 kts | 174° |
| 2026-05-01 08:17 | -22.09516 | 17.42220 | 17149 ft | 347 kts | 174° |
| 2026-05-01 08:17 | -22.11919 | 17.42523 | 16705 ft | 348 kts | 174° |
| 2026-05-01 08:18 | -22.14313 | 17.42826 | 16246 ft | 347 kts | 174° |
| 2026-05-01 08:18 | -22.19111 | 17.43432 | 15355 ft | 343 kts | 174° |
| 2026-05-01 08:19 | -22.23842 | 17.44030 | 14423 ft | 341 kts | 174° |
| 2026-05-01 08:19 | -22.26210 | 17.44330 | 13952 ft | 340 kts | 175° |
| 2026-05-01 08:19 | -22.28547 | 17.44625 | 13497 ft | 339 kts | 175° |
| 2026-05-01 08:19 | -22.30888 | 17.44922 | 13030 ft | 338 kts | 175° |
| 2026-05-01 08:20 | -22.33240 | 17.45219 | 12566 ft | 337 kts | 175° |
| 2026-05-01 08:20 | -22.35563 | 17.45513 | 12122 ft | 336 kts | 175° |
| 2026-05-01 08:20 | -22.37907 | 17.45810 | 11697 ft | 335 kts | 175° |
| 2026-05-01 08:20 | -22.40218 | 17.46142 | 11259 ft | 334 kts | 169° |
| 2026-05-01 08:21 | -22.42340 | 17.47141 | 10854 ft | 335 kts | 146° |
| 2026-05-01 08:21 | -22.43930 | 17.48958 | 10652 ft | 331 kts | 121° |
| 2026-05-01 08:21 | -22.44737 | 17.51277 | 10446 ft | 332 kts | 98° |
| 2026-05-01 08:21 | -22.44667 | 17.53711 | 10161 ft | 319 kts | 75° |
| 2026-05-01 08:22 | -22.43854 | 17.55814 | 9714 ft | 298 kts | 59° |
| 2026-05-01 08:22 | -22.42954 | 17.57760 | 9441 ft | 279 kts | 61° |
| 2026-05-01 08:22 | -22.42125 | 17.59598 | 9387 ft | 272 kts | 61° |
| 2026-05-01 08:22 | -22.41477 | 17.61510 | 9296 ft | 269 kts | 82° |
| 2026-05-01 08:23 | -22.41674 | 17.63477 | 9220 ft | 263 kts | 112° |
| 2026-05-01 08:23 | -22.42691 | 17.65074 | 9050 ft | 261 kts | 141° |
| 2026-05-01 08:23 | -22.44269 | 17.65940 | 8848 ft | 249 kts | 172° |
| 2026-05-01 08:23 | -22.45967 | 17.65882 | 8786 ft | 244 kts | 201° |
| 2026-05-01 08:24 | -22.47424 | 17.65000 | 8795 ft | 238 kts | 228° |
| 2026-05-01 08:24 | -22.48340 | 17.63529 | 8778 ft | 234 kts | 254° |
| 2026-05-01 08:24 | -22.48562 | 17.61827 | 8746 ft | 229 kts | 275° |
| 2026-05-01 08:24 | -22.48455 | 17.60120 | 8702 ft | 229 kts | 275° |
| 2026-05-01 08:25 | -22.48357 | 17.58391 | 8645 ft | 230 kts | 275° |
| 2026-05-01 08:25 | -22.48258 | 17.56668 | 8655 ft | 231 kts | 274° |
| 2026-05-01 08:25 | -22.48160 | 17.54939 | 8588 ft | 229 kts | 275° |
| 2026-05-01 08:25 | -22.48062 | 17.53226 | 8520 ft | 227 kts | 274° |
| 2026-05-01 08:26 | -22.47964 | 17.51516 | 8451 ft | 228 kts | 274° |
| 2026-05-01 08:26 | -22.47868 | 17.49808 | 8421 ft | 226 kts | 274° |
| 2026-05-01 08:26 | -22.47772 | 17.48103 | 8421 ft | 227 kts | 274° |
| 2026-05-01 08:26 | -22.47676 | 17.46402 | 8416 ft | 228 kts | 274° |
| 2026-05-01 08:27 | -22.47579 | 17.44702 | 8261 ft | 231 kts | 274° |
| 2026-05-01 08:27 | -22.47473 | 17.42888 | 7915 ft | 258 kts | 275° |
| 2026-05-01 08:27 | -22.47321 | 17.40868 | 7996 ft | 278 kts | 275° |
| 2026-05-01 08:27 | -22.47156 | 17.38772 | 7930 ft | 280 kts | 275° |
| 2026-05-01 08:28 | -22.46823 | 17.36716 | 7921 ft | 278 kts | 291° |
| 2026-05-01 08:28 | -22.45740 | 17.35027 | 7936 ft | 278 kts | 318° |
| 2026-05-01 08:28 | -22.44056 | 17.34057 | 7964 ft | 268 kts | 346° |
| 2026-05-01 08:28 | -22.42246 | 17.34055 | 7970 ft | 257 kts | 14° |
| 2026-05-01 08:29 | -22.40737 | 17.34964 | 7967 ft | 247 kts | 44° |
| 2026-05-01 08:29 | -22.39715 | 17.36428 | 7977 ft | 240 kts | 56° |
| 2026-05-01 08:29 | -22.38872 | 17.37992 | 7962 ft | 240 kts | 60° |
| 2026-05-01 08:29 | -22.38120 | 17.39586 | 7983 ft | 241 kts | 63° |
| 2026-05-01 08:30 | -22.37411 | 17.41229 | 7972 ft | 241 kts | 64° |
| 2026-05-01 08:30 | -22.36736 | 17.42888 | 7979 ft | 242 kts | 65° |
| 2026-05-01 08:30 | -22.36077 | 17.44563 | 8129 ft | 246 kts | 65° |
| 2026-05-01 08:30 | -22.35413 | 17.46279 | 7931 ft | 247 kts | 66° |
| 2026-05-01 08:31 | -22.34765 | 17.47979 | 7979 ft | 242 kts | 66° |
| 2026-05-01 08:31 | -22.34134 | 17.49642 | 7975 ft | 241 kts | 66° |
| 2026-05-01 08:31 | -22.33504 | 17.51312 | 7976 ft | 241 kts | 66° |
| 2026-05-01 08:31 | -22.32863 | 17.53011 | 7984 ft | 241 kts | 66° |
| 2026-05-01 08:32 | -22.32231 | 17.54690 | 7985 ft | 242 kts | 66° |
| 2026-05-01 08:32 | -22.31605 | 17.56355 | 7985 ft | 242 kts | 66° |
| 2026-05-01 08:32 | -22.30969 | 17.58042 | 7988 ft | 242 kts | 66° |
| 2026-05-01 08:32 | -22.30334 | 17.59730 | 7998 ft | 243 kts | 66° |
| 2026-05-01 08:33 | -22.29763 | 17.61446 | 7981 ft | 244 kts | 79° |
| 2026-05-01 08:33 | -22.29908 | 17.63253 | 8002 ft | 247 kts | 111° |
| 2026-05-01 08:33 | -22.30919 | 17.64771 | 8015 ft | 257 kts | 143° |
| 2026-05-01 08:33 | -22.32595 | 17.65765 | 8068 ft | 292 kts | 161° |
| 2026-05-01 08:34 | -22.34567 | 17.66187 | 7925 ft | 281 kts | 176° |
| 2026-05-01 08:34 | -22.36424 | 17.66346 | 7972 ft | 252 kts | 178° |
| 2026-05-01 08:34 | -22.38085 | 17.66179 | 7941 ft | 226 kts | 206° |
| 2026-05-01 08:34 | -22.39250 | 17.65246 | 7988 ft | 199 kts | 228° |
| 2026-05-01 08:35 | -22.40064 | 17.64137 | 7962 ft | 174 kts | 246° |
| 2026-05-01 08:35 | -22.40553 | 17.63078 | 7971 ft | 145 kts | 245° |
| 2026-05-01 08:35 | -22.41012 | 17.62112 | 8046 ft | 146 kts | 246° |
| 2026-05-01 08:35 | -22.41495 | 17.61075 | 7994 ft | 164 kts | 246° |
| 2026-05-01 08:36 | -22.42020 | 17.59943 | 7810 ft | 166 kts | 245° |
| 2026-05-01 08:36 | -22.42525 | 17.58864 | 7564 ft | 154 kts | 245° |
| 2026-05-01 08:36 | -22.42998 | 17.57844 | 7374 ft | 150 kts | 245° |
| 2026-05-01 08:36 | -22.43464 | 17.56838 | 7196 ft | 150 kts | 245° |
| 2026-05-01 08:37 | -22.43944 | 17.55824 | 7040 ft | 151 kts | 244° |
| 2026-05-01 08:37 | -22.44418 | 17.54806 | 6832 ft | 152 kts | 246° |
| 2026-05-01 08:37 | -22.44898 | 17.53797 | 6649 ft | 151 kts | 243° |
| 2026-05-01 08:37 | -22.45367 | 17.52779 | 6458 ft | 152 kts | 245° |
| 2026-05-01 08:38 | -22.45833 | 17.51758 | 6240 ft | 151 kts | 243° |
| 2026-05-01 08:38 | -22.46306 | 17.50758 | 6059 ft | 150 kts | 244° |
| 2026-05-01 08:38 | -22.46772 | 17.49733 | 5839 ft | 150 kts | 244° |
| 2026-05-01 08:38 | -22.47232 | 17.48736 | 5674 ft | 149 kts | 244° |
| 2026-05-01 08:39 | -22.47667 | 17.47793 | 5655 ft | 121 kts | 243° |
| 2026-05-01 08:39 | -22.47954 | 17.47165 | 5655 ft | 66 kts | 243° |
| 2026-05-01 08:39 | -22.48155 | 17.46730 | 5655 ft | 59 kts | 243° |
| 2026-05-01 08:39 | -22.48287 | 17.46443 | 5655 ft | 17 kts | 244° |
| 2026-05-01 08:40 | -22.48337 | 17.46331 | 5655 ft | 10 kts | 244° |
| 2026-05-01 08:40 | -22.48410 | 17.46292 | 5655 ft | 10 kts | 153° |
| 2026-05-01 08:40 | -22.48470 | 17.46304 | 5655 ft | 7 kts | 213° |
| 2026-05-01 08:41 | -22.48486 | 17.46282 | 5655 ft | 1 kts | 241° |
| 2026-05-01 08:41 | -22.48509 | 17.46234 | 5655 ft | 11 kts | 244° |
| 2026-05-01 08:41 | -22.48523 | 17.46201 | 5655 ft | 5 kts | 244° |
| 2026-05-01 08:41 | -22.48558 | 17.46198 | 5655 ft | 6 kts | 155° |
| 2026-05-01 08:42 | -22.48582 | 17.46211 | 5655 ft | 0 kts | 154° |
| 2026-05-01 08:42 | -22.48588 | 17.46214 | 5655 ft | 0 kts | 153° |
| 2026-05-01 08:42 | -22.48592 | 17.46216 | 5655 ft | 0 kts | 153° |
| 2026-05-01 08:42 | -22.48595 | 17.46217 | 5655 ft | 2 kts | 153° |
| 2026-05-01 08:43 | -22.48631 | 17.46236 | 5655 ft | 5 kts | 153° |
| 2026-05-01 08:43 | -22.48636 | 17.46240 | 5655 ft | 0 kts | 153° |